SAZS

San Carlos De Bariloche Airport

San Carlos de Bariloche, Argentina
TAF SAZS 200500Z 2006/2106 29010KT CAVOK TX25/2019Z TN08/2010Z BECMG 2014/2016 29020G30KT
Issued Valid From Valid To
Jan-20 @ 05:00 UTC
(6 hours ago)
Jan-20 @ 06:00 UTC
(5 hours ago)
Jan-21 @ 06:00 UTC
(in 19 hours)
Jan-20 @ 06:00 to Jan-20 @ 14:00
TAF SAZS 200500Z 2006/2106 29010KT CAVOK TX25/2019Z TN08/2010Z
Wind Visibility Clouds
290° at 10 knots 10,000+ meters
  • No significant clouds
Becoming Jan-20 @ 14:00 to Jan-21 @ 06:00
BECMG 2014/2016 29020G30KT
Wind Visibility Clouds
290° at 20 knots
 Gusting to 30 knots
10,000+ meters
  • No significant clouds
TAF SAZS 200500Z 2006/2106 29010KT CAVOK TX25/2019Z TN08/2010Z BECMG 2014/2016 29020G30KT
Issued Jan-20 @ 05:00 UTC
(6 hours ago)
Valid From Jan-20 @ 06:00 UTC
(5 hours ago)
Valid To Jan-21 @ 06:00 UTC
(in 19 hours)
Jan-20 @ 06:00 - Jan-20 @ 14:00
Wind Visibility
290° at 10 knots 10,000+ meters
Clouds
  • No significant clouds
Becoming Jan-20 @ 14:00 - Jan-21 @ 06:00
Wind Visibility
290° at 20 knots
 Gusting to 30 knots
10,000+ meters
Clouds
  • No significant clouds